sensor_id;sensor_type;location;lat;lon;timestamp;pressure;altitude;pressure_sealevel;temperature;humidity
9676;BME280;4876;42.656;23.292;2023-08-24T00:00:51;94518.56;;;25.34;58.90
9676;BME280;4876;42.656;23.292;2023-08-24T00:03:18;94519.28;;;25.41;58.70
9676;BME280;4876;42.656;23.292;2023-08-24T00:05:47;94511.88;;;25.49;58.53
9676;BME280;4876;42.656;23.292;2023-08-24T00:08:14;94522.88;;;25.65;58.13
9676;BME280;4876;42.656;23.292;2023-08-24T00:10:43;94519.84;;;25.60;58.55
9676;BME280;4876;42.656;23.292;2023-08-24T00:13:12;94521.66;;;25.70;58.20
9676;BME280;4876;42.656;23.292;2023-08-24T00:15:39;94512.53;;;25.60;57.71
9676;BME280;4876;42.656;23.292;2023-08-24T00:18:07;94513.91;;;25.38;58.90
9676;BME280;4876;42.656;23.292;2023-08-24T00:20:34;94506.19;;;25.40;58.94
9676;BME280;4876;42.656;23.292;2023-08-24T00:23:03;94512.22;;;25.51;58.64
9676;BME280;4876;42.656;23.292;2023-08-24T00:25:30;94516.41;;;25.59;58.22
9676;BME280;4876;42.656;23.292;2023-08-24T00:27:57;94506.41;;;25.56;58.65
9676;BME280;4876;42.656;23.292;2023-08-24T00:30:23;94502.09;;;25.62;58.62
9676;BME280;4876;42.656;23.292;2023-08-24T00:32:50;94503.97;;;25.69;58.36
9676;BME280;4876;42.656;23.292;2023-08-24T00:35:19;94512.75;;;25.76;58.26
9676;BME280;4876;42.656;23.292;2023-08-24T00:37:45;94508.63;;;25.99;57.88
9676;BME280;4876;42.656;23.292;2023-08-24T00:40:12;94509.75;;;26.01;57.51
9676;BME280;4876;42.656;23.292;2023-08-24T00:42:40;94513.91;;;25.75;58.60
9676;BME280;4876;42.656;23.292;2023-08-24T00:45:08;94507.81;;;25.68;58.55
9676;BME280;4876;42.656;23.292;2023-08-24T00:47:36;94515.56;;;25.62;58.80
9676;BME280;4876;42.656;23.292;2023-08-24T00:50:03;94516.66;;;25.68;58.36
9676;BME280;4876;42.656;23.292;2023-08-24T00:52:34;94517.69;;;25.82;58.13
9676;BME280;4876;42.656;23.292;2023-08-24T00:55:02;94528.38;;;25.89;58.14
9676;BME280;4876;42.656;23.292;2023-08-24T00:57:30;94527.34;;;25.79;58.13
9676;BME280;4876;42.656;23.292;2023-08-24T00:59:59;94521.13;;;25.86;57.94
9676;BME280;4876;42.656;23.292;2023-08-24T01:02:30;94512.81;;;25.73;58.33
9676;BME280;4876;42.656;23.292;2023-08-24T01:04:58;94518.19;;;25.69;58.51
9676;BME280;4876;42.656;23.292;2023-08-24T01:07:25;94513.63;;;25.66;58.86
9676;BME280;4876;42.656;23.292;2023-08-24T01:09:55;94512.16;;;25.58;58.86
9676;BME280;4876;42.656;23.292;2023-08-24T01:12:27;94517.78;;;25.37;59.73
9676;BME280;4876;42.656;23.292;2023-08-24T01:15:00;94509.28;;;25.38;59.61
9676;BME280;4876;42.656;23.292;2023-08-24T01:17:31;94502.53;;;25.23;60.08
9676;BME280;4876;42.656;23.292;2023-08-24T01:19:59;94501.75;;;25.22;60.09
9676;BME280;4876;42.656;23.292;2023-08-24T01:22:33;94501.47;;;25.51;59.48
9676;BME280;4876;42.656;23.292;2023-08-24T01:25:05;94504.81;;;25.62;58.79
9676;BME280;4876;42.656;23.292;2023-08-24T01:27:36;94512.91;;;25.59;58.98
9676;BME280;4876;42.656;23.292;2023-08-24T01:30:05;94508.50;;;25.41;59.31
9676;BME280;4876;42.656;23.292;2023-08-24T01:32:33;94503.06;;;25.45;59.35
9676;BME280;4876;42.656;23.292;2023-08-24T01:35:02;94508.44;;;25.45;59.61
9676;BME280;4876;42.656;23.292;2023-08-24T01:37:30;94516.94;;;25.40;59.86
9676;BME280;4876;42.656;23.292;2023-08-24T01:40:02;94510.38;;;25.44;59.40
9676;BME280;4876;42.656;23.292;2023-08-24T01:42:43;94509.56;;;25.10;60.07
9676;BME280;4876;42.656;23.292;2023-08-24T01:45:13;94508.34;;;24.66;61.69
9676;BME280;4876;42.656;23.292;2023-08-24T01:47:41;94513.41;;;24.57;61.98
9676;BME280;4876;42.656;23.292;2023-08-24T01:50:09;94497.28;;;24.53;61.12
9676;BME280;4876;42.656;23.292;2023-08-24T01:52:37;94522.09;;;24.75;60.76
9676;BME280;4876;42.656;23.292;2023-08-24T01:55:04;94515.13;;;24.85;60.40
9676;BME280;4876;42.656;23.292;2023-08-24T01:57:31;94513.56;;;24.84;60.89
9676;BME280;4876;42.656;23.292;2023-08-24T02:00:00;94511.41;;;24.68;61.07
9676;BME280;4876;42.656;23.292;2023-08-24T02:02:27;94515.97;;;24.71;61.23
9676;BME280;4876;42.656;23.292;2023-08-24T02:04:54;94506.03;;;24.68;61.27
9676;BME280;4876;42.656;23.292;2023-08-24T02:07:21;94522.09;;;24.79;60.98
9676;BME280;4876;42.656;23.292;2023-08-24T02:09:48;94525.50;;;24.86;60.47
9676;BME280;4876;42.656;23.292;2023-08-24T02:12:15;94522.53;;;24.70;61.06
9676;BME280;4876;42.656;23.292;2023-08-24T02:14:42;94519.81;;;24.74;61.60
9676;BME280;4876;42.656;23.292;2023-08-24T02:17:10;94517.94;;;24.67;61.59
9676;BME280;4876;42.656;23.292;2023-08-24T02:19:37;94522.81;;;24.86;61.46
9676;BME280;4876;42.656;23.292;2023-08-24T02:22:03;94527.28;;;25.00;60.72
9676;BME280;4876;42.656;23.292;2023-08-24T02:24:30;94522.34;;;24.95;60.77
9676;BME280;4876;42.656;23.292;2023-08-24T02:26:57;94535.06;;;24.91;61.06
9676;BME280;4876;42.656;23.292;2023-08-24T02:29:24;94532.69;;;25.00;60.84
9676;BME280;4876;42.656;23.292;2023-08-24T02:31:51;94527.28;;;25.00;60.75
9676;BME280;4876;42.656;23.292;2023-08-24T02:34:19;94524.72;;;24.86;61.07
9676;BME280;4876;42.656;23.292;2023-08-24T02:36:46;94534.31;;;24.87;61.07
9676;BME280;4876;42.656;23.292;2023-08-24T02:39:13;94530.47;;;24.84;61.01
9676;BME280;4876;42.656;23.292;2023-08-24T02:41:40;94530.47;;;24.84;60.98
9676;BME280;4876;42.656;23.292;2023-08-24T02:44:07;94517.47;;;24.79;61.38
9676;BME280;4876;42.656;23.292;2023-08-24T02:46:34;94522.81;;;24.86;61.20
9676;BME280;4876;42.656;23.292;2023-08-24T02:49:00;94512.84;;;24.80;61.61
9676;BME280;4876;42.656;23.292;2023-08-24T02:51:29;94503.25;;;24.79;61.43
9676;BME280;4876;42.656;23.292;2023-08-24T02:53:56;94493.69;;;24.70;61.67
9676;BME280;4876;42.656;23.292;2023-08-24T02:56:23;94501.41;;;24.68;61.68
9676;BME280;4876;42.656;23.292;2023-08-24T02:58:50;94495.22;;;24.71;61.88
9676;BME280;4876;42.656;23.292;2023-08-24T03:01:18;94503.00;;;24.62;62.16
9676;BME280;4876;42.656;23.292;2023-08-24T03:03:45;94492.78;;;24.32;63.27
9676;BME280;4876;42.656;23.292;2023-08-24T03:06:11;94487.53;;;24.11;63.71
9676;BME280;4876;42.656;23.292;2023-08-24T03:08:40;94488.09;;;23.70;65.04
9676;BME280;4876;42.656;23.292;2023-08-24T03:11:06;94498.19;;;23.09;67.15
9676;BME280;4876;42.656;23.292;2023-08-24T03:13:36;94499.75;;;22.92;68.32
9676;BME280;4876;42.656;23.292;2023-08-24T03:16:04;94518.16;;;22.87;68.40
9676;BME280;4876;42.656;23.292;2023-08-24T03:18:31;94501.25;;;22.79;68.61
9676;BME280;4876;42.656;23.292;2023-08-24T03:20:58;94528.44;;;22.67;70.57
9676;BME280;4876;42.656;23.292;2023-08-24T03:23:25;94526.91;;;22.76;70.18
9676;BME280;4876;42.656;23.292;2023-08-24T03:25:55;94531.19;;;22.99;69.10
9676;BME280;4876;42.656;23.292;2023-08-24T03:28:22;94537.66;;;23.08;68.93
9676;BME280;4876;42.656;23.292;2023-08-24T03:30:51;94536.91;;;23.26;68.48
9676;BME280;4876;42.656;23.292;2023-08-24T03:33:18;94542.22;;;23.40;67.72
9676;BME280;4876;42.656;23.292;2023-08-24T03:35:44;94552.59;;;23.45;67.18
9676;BME280;4876;42.656;23.292;2023-08-24T03:38:11;94547.94;;;23.60;66.21
9676;BME280;4876;42.656;23.292;2023-08-24T03:40:38;94544.13;;;23.57;66.09
9676;BME280;4876;42.656;23.292;2023-08-24T03:43:06;94548.72;;;23.57;66.08
9676;BME280;4876;42.656;23.292;2023-08-24T03:45:33;94540.34;;;23.23;66.55
9676;BME280;4876;42.656;23.292;2023-08-24T03:48:00;94540.34;;;23.16;67.31
9676;BME280;4876;42.656;23.292;2023-08-24T03:50:27;94551.84;;;22.80;69.33
9676;BME280;4876;42.656;23.292;2023-08-24T03:52:54;94562.53;;;22.77;69.32
9676;BME280;4876;42.656;23.292;2023-08-24T03:55:21;94565.22;;;22.63;70.24
9676;BME280;4876;42.656;23.292;2023-08-24T03:57:48;94559.50;;;22.82;69.70
9676;BME280;4876;42.656;23.292;2023-08-24T04:00:16;94567.19;;;23.05;69.03
9676;BME280;4876;42.656;23.292;2023-08-24T04:02:44;94563.72;;;23.40;67.62
9676;BME280;4876;42.656;23.292;2023-08-24T04:05:11;94563.31;;;23.45;67.48
9676;BME280;4876;42.656;23.292;2023-08-24T04:07:38;94553.34;;;23.49;67.18
9676;BME280;4876;42.656;23.292;2023-08-24T04:10:07;94563.72;;;23.61;66.78
9676;BME280;4876;42.656;23.292;2023-08-24T04:12:34;94561.00;;;23.69;66.65
9676;BME280;4876;42.656;23.292;2023-08-24T04:15:02;94557.88;;;23.84;66.15
9676;BME280;4876;42.656;23.292;2023-08-24T04:17:31;94567.47;;;23.89;65.73
9676;BME280;4876;42.656;23.292;2023-08-24T04:19:58;94554.00;;;24.00;65.20
9676;BME280;4876;42.656;23.292;2023-08-24T04:22:25;94554.75;;;23.97;65.31
9676;BME280;4876;42.656;23.292;2023-08-24T04:24:51;94555.97;;;23.78;66.45
9676;BME280;4876;42.656;23.292;2023-08-24T04:27:19;94550.22;;;23.86;68.71
9676;BME280;4876;42.656;23.292;2023-08-24T04:29:47;94557.13;;;23.77;67.62
9676;BME280;4876;42.656;23.292;2023-08-24T04:32:14;94528.03;;;23.68;67.02
9676;BME280;4876;42.656;23.292;2023-08-24T04:34:42;94546.38;;;23.87;67.34
9676;BME280;4876;42.656;23.292;2023-08-24T04:37:09;94560.25;;;23.43;67.38
9676;BME280;4876;42.656;23.292;2023-08-24T04:39:36;94553.72;;;22.73;70.23
9676;BME280;4876;42.656;23.292;2023-08-24T04:42:03;94561.00;;;22.72;70.15
9676;BME280;4876;42.656;23.292;2023-08-24T04:44:29;94566.78;;;22.81;70.38
9676;BME280;4876;42.656;23.292;2023-08-24T04:46:56;94564.13;;;23.06;71.44
9676;BME280;4876;42.656;23.292;2023-08-24T04:49:23;94564.09;;;23.28;69.01
9676;BME280;4876;42.656;23.292;2023-08-24T04:51:51;94572.91;;;23.50;68.86
9676;BME280;4876;42.656;23.292;2023-08-24T04:54:18;94573.28;;;23.45;68.85
9676;BME280;4876;42.656;23.292;2023-08-24T05:00:14;94555.97;;;21.52;78.48
9676;BME280;4876;42.656;23.292;2023-08-24T05:02:42;94559.44;;;21.59;78.52
9676;BME280;4876;42.656;23.292;2023-08-24T05:05:09;94562.41;;;22.13;75.93
9676;BME280;4876;42.656;23.292;2023-08-24T05:07:38;94563.97;;;22.21;74.55
9676;BME280;4876;42.656;23.292;2023-08-24T05:10:06;94556.44;;;21.71;77.10
9676;BME280;4876;42.656;23.292;2023-08-24T05:12:33;94560.75;;;21.90;76.01
9676;BME280;4876;42.656;23.292;2023-08-24T05:15:01;94562.28;;;21.91;75.93
9676;BME280;4876;42.656;23.292;2023-08-24T05:17:28;94561.13;;;21.92;75.17
9676;BME280;4876;42.656;23.292;2023-08-24T05:19:55;94564.97;;;21.91;76.29
9676;BME280;4876;42.656;23.292;2023-08-24T05:22:22;94568.41;;;21.88;75.69
9676;BME280;4876;42.656;23.292;2023-08-24T05:24:50;94573.03;;;21.95;75.95
9676;BME280;4876;42.656;23.292;2023-08-24T05:27:17;94587.31;;;22.27;74.74
9676;BME280;4876;42.656;23.292;2023-08-24T05:29:43;94585.09;;;22.51;73.62
9676;BME280;4876;42.656;23.292;2023-08-24T05:32:10;94587.81;;;22.69;72.77
9676;BME280;4876;42.656;23.292;2023-08-24T05:34:37;94585.91;;;22.69;72.53
9676;BME280;4876;42.656;23.292;2023-08-24T05:37:04;94590.91;;;22.67;72.86
9676;BME280;4876;42.656;23.292;2023-08-24T05:39:31;94596.63;;;22.69;73.09
9676;BME280;4876;42.656;23.292;2023-08-24T05:41:59;94595.94;;;22.87;72.59
9676;BME280;4876;42.656;23.292;2023-08-24T05:44:26;94611.25;;;23.22;71.55
9676;BME280;4876;42.656;23.292;2023-08-24T05:46:53;94606.97;;;22.85;72.70
9676;BME280;4876;42.656;23.292;2023-08-24T05:49:19;94612.41;;;22.99;71.86
9676;BME280;4876;42.656;23.292;2023-08-24T05:51:46;94599.00;;;23.49;70.36
9676;BME280;4876;42.656;23.292;2023-08-24T05:54:14;94603.94;;;23.83;68.96
9676;BME280;4876;42.656;23.292;2023-08-24T05:56:43;94598.59;;;23.76;68.77
9676;BME280;4876;42.656;23.292;2023-08-24T05:59:12;94603.94;;;23.83;69.03
9676;BME280;4876;42.656;23.292;2023-08-24T06:01:39;94607.03;;;23.53;70.13
9676;BME280;4876;42.656;23.292;2023-08-24T06:04:07;94605.88;;;23.50;70.41
9676;BME280;4876;42.656;23.292;2023-08-24T06:06:34;94594.75;;;23.70;70.88
9676;BME280;4876;42.656;23.292;2023-08-24T06:09:01;94600.09;;;23.87;68.92
9676;BME280;4876;42.656;23.292;2023-08-24T06:11:30;94597.66;;;24.29;67.76
9676;BME280;4876;42.656;23.292;2023-08-24T06:13:56;94610.22;;;24.53;65.53
9676;BME280;4876;42.656;23.292;2023-08-24T06:16:25;94619.31;;;24.81;64.52
9676;BME280;4876;42.656;23.292;2023-08-24T06:18:51;94610.03;;;24.89;63.82
9676;BME280;4876;42.656;23.292;2023-08-24T06:21:18;94602.28;;;24.98;62.22
9676;BME280;4876;42.656;23.292;2023-08-24T06:23:45;94608.59;;;24.70;63.93
9676;BME280;4876;42.656;23.292;2023-08-24T06:26:13;94609.81;;;24.62;63.94
9676;BME280;4876;42.656;23.292;2023-08-24T06:28:39;94604.28;;;24.83;62.93
9676;BME280;4876;42.656;23.292;2023-08-24T06:31:07;94611.59;;;24.86;62.77
9676;BME280;4876;42.656;23.292;2023-08-24T06:33:36;94608.09;;;24.93;62.94
9676;BME280;4876;42.656;23.292;2023-08-24T06:36:04;94600.28;;;25.13;62.16
9676;BME280;4876;42.656;23.292;2023-08-24T06:38:31;94606.06;;;25.11;61.70
9676;BME280;4876;42.656;23.292;2023-08-24T06:40:58;94602.19;;;25.12;62.01
9676;BME280;4876;42.656;23.292;2023-08-24T06:43:25;94602.81;;;25.31;61.52
9676;BME280;4876;42.656;23.292;2023-08-24T06:45:52;94607.66;;;25.50;61.37
9676;BME280;4876;42.656;23.292;2023-08-24T06:48:19;94608.97;;;25.80;60.17
9676;BME280;4876;42.656;23.292;2023-08-24T06:50:47;94615.00;;;25.91;59.43
9676;BME280;4876;42.656;23.292;2023-08-24T06:53:14;94599.84;;;26.04;58.58
9676;BME280;4876;42.656;23.292;2023-08-24T06:55:41;94609.47;;;26.05;59.69
9676;BME280;4876;42.656;23.292;2023-08-24T06:58:08;94604.03;;;26.09;59.66
9676;BME280;4876;42.656;23.292;2023-08-24T07:00:35;94614.59;;;26.26;58.52
9676;BME280;4876;42.656;23.292;2023-08-24T07:03:03;94606.72;;;26.43;58.38
9676;BME280;4876;42.656;23.292;2023-08-24T07:05:29;94601.88;;;26.61;58.12
9676;BME280;4876;42.656;23.292;2023-08-24T07:08:00;94607.78;;;26.79;56.70
9676;BME280;4876;42.656;23.292;2023-08-24T07:10:28;94595.44;;;27.09;56.37
9676;BME280;4876;42.656;23.292;2023-08-24T07:12:55;94594.38;;;26.99;56.75
9676;BME280;4876;42.656;23.292;2023-08-24T07:15:22;94593.22;;;27.27;55.23
9676;BME280;4876;42.656;23.292;2023-08-24T07:17:48;94592.22;;;27.41;55.82
9676;BME280;4876;42.656;23.292;2023-08-24T07:20:15;94596.72;;;27.24;55.92
9676;BME280;4876;42.656;23.292;2023-08-24T07:22:42;94589.19;;;27.12;55.80
9676;BME280;4876;42.656;23.292;2023-08-24T07:25:10;94593.28;;;26.97;56.75
9676;BME280;4876;42.656;23.292;2023-08-24T07:27:38;94591.69;;;26.72;58.05
9676;BME280;4876;42.656;23.292;2023-08-24T07:30:05;94588.75;;;26.90;56.61
9676;BME280;4876;42.656;23.292;2023-08-24T07:32:33;94585.44;;;26.79;56.51
9676;BME280;4876;42.656;23.292;2023-08-24T07:35:00;94594.91;;;26.91;56.27
9676;BME280;4876;42.656;23.292;2023-08-24T07:37:27;94593.94;;;26.77;57.37
9676;BME280;4876;42.656;23.292;2023-08-24T07:39:54;94596.06;;;26.63;57.27
9676;BME280;4876;42.656;23.292;2023-08-24T07:42:22;94598.41;;;26.61;57.92
9676;BME280;4876;42.656;23.292;2023-08-24T07:44:50;94592.59;;;26.62;57.83
9676;BME280;4876;42.656;23.292;2023-08-24T07:47:17;94595.06;;;27.07;57.12
9676;BME280;4876;42.656;23.292;2023-08-24T07:49:43;94590.50;;;27.27;55.94
9676;BME280;4876;42.656;23.292;2023-08-24T07:52:10;94596.13;;;27.60;55.63
9676;BME280;4876;42.656;23.292;2023-08-24T07:54:37;94597.78;;;27.77;55.60
9676;BME280;4876;42.656;23.292;2023-08-24T07:57:04;94585.56;;;27.69;54.98
9676;BME280;4876;42.656;23.292;2023-08-24T07:59:33;94593.06;;;27.81;54.25
9676;BME280;4876;42.656;23.292;2023-08-24T08:02:00;94586.84;;;27.84;54.22
9676;BME280;4876;42.656;23.292;2023-08-24T08:04:26;94587.13;;;28.10;53.76
9676;BME280;4876;42.656;23.292;2023-08-24T08:06:53;94585.88;;;27.95;53.87
9676;BME280;4876;42.656;23.292;2023-08-24T08:09:21;94588.94;;;27.97;53.12
9676;BME280;4876;42.656;23.292;2023-08-24T08:11:48;94590.13;;;28.15;52.43
9676;BME280;4876;42.656;23.292;2023-08-24T08:14:15;94587.88;;;28.30;51.85
9676;BME280;4876;42.656;23.292;2023-08-24T08:16:43;94588.47;;;28.41;51.31
9676;BME280;4876;42.656;23.292;2023-08-24T08:19:09;94595.81;;;28.21;51.58
9676;BME280;4876;42.656;23.292;2023-08-24T08:21:36;94590.09;;;28.55;50.43
9676;BME280;4876;42.656;23.292;2023-08-24T08:24:03;94575.53;;;28.85;50.36
9676;BME280;4876;42.656;23.292;2023-08-24T08:26:30;94587.50;;;29.37;49.34
9676;BME280;4876;42.656;23.292;2023-08-24T08:28:57;94581.13;;;29.43;49.07
9676;BME280;4876;42.656;23.292;2023-08-24T08:31:24;94579.22;;;29.28;49.50
9676;BME280;4876;42.656;23.292;2023-08-24T08:33:52;94582.34;;;29.26;48.94
9676;BME280;4876;42.656;23.292;2023-08-24T08:36:19;94578.16;;;29.38;48.99
9676;BME280;4876;42.656;23.292;2023-08-24T08:38:45;94580.97;;;29.50;48.87
9676;BME280;4876;42.656;23.292;2023-08-24T08:41:12;94575.56;;;29.18;48.80
9676;BME280;4876;42.656;23.292;2023-08-24T08:43:41;94573.44;;;29.42;48.43
9676;BME280;4876;42.656;23.292;2023-08-24T08:46:08;94575.22;;;29.65;47.60
9676;BME280;4876;42.656;23.292;2023-08-24T08:48:37;94566.13;;;29.71;47.58
9676;BME280;4876;42.656;23.292;2023-08-24T08:51:08;94562.78;;;29.80;47.22
9676;BME280;4876;42.656;23.292;2023-08-24T08:53:36;94563.09;;;29.98;47.06
9676;BME280;4876;42.656;23.292;2023-08-24T08:56:03;94562.59;;;29.87;47.18
9676;BME280;4876;42.656;23.292;2023-08-24T08:58:31;94554.09;;;30.01;47.33
9676;BME280;4876;42.656;23.292;2023-08-24T09:00:58;94554.72;;;30.35;46.91
9676;BME280;4876;42.656;23.292;2023-08-24T09:03:26;94519.13;;;30.33;46.37
9676;BME280;4876;42.656;23.292;2023-08-24T09:05:55;94536.84;;;30.63;45.91
9676;BME280;4876;42.656;23.292;2023-08-24T09:08:25;94546.28;;;30.58;46.15
9676;BME280;4876;42.656;23.292;2023-08-24T09:10:53;94538.88;;;30.33;46.38
9676;BME280;4876;42.656;23.292;2023-08-24T09:13:20;94539.34;;;30.44;47.03
9676;BME280;4876;42.656;23.292;2023-08-24T09:15:51;94536.63;;;30.44;45.97
9676;BME280;4876;42.656;23.292;2023-08-24T09:18:18;94527.97;;;30.75;45.64
9676;BME280;4876;42.656;23.292;2023-08-24T09:20:46;94530.56;;;30.78;45.00
9676;BME280;4876;42.656;23.292;2023-08-24T09:23:17;94523.69;;;30.61;44.82
9676;BME280;4876;42.656;23.292;2023-08-24T09:25:46;94522.19;;;30.47;45.29
9676;BME280;4876;42.656;23.292;2023-08-24T09:28:14;94519.25;;;30.80;44.67
9676;BME280;4876;42.656;23.292;2023-08-24T09:30:44;94512.69;;;31.16;44.10
9676;BME280;4876;42.656;23.292;2023-08-24T09:33:13;94512.50;;;30.97;44.65
9676;BME280;4876;42.656;23.292;2023-08-24T09:35:39;94506.09;;;30.91;43.88
9676;BME280;4876;42.656;23.292;2023-08-24T09:38:16;94502.53;;;30.94;45.00
9676;BME280;4876;42.656;23.292;2023-08-24T09:40:46;94499.63;;;31.36;43.95
9676;BME280;4876;42.656;23.292;2023-08-24T09:43:14;94502.28;;;31.49;44.08
9676;BME280;4876;42.656;23.292;2023-08-24T09:45:48;94493.25;;;31.52;42.93
9676;BME280;4876;42.656;23.292;2023-08-24T09:48:15;94501.56;;;31.70;42.43
9676;BME280;4876;42.656;23.292;2023-08-24T09:50:42;94500.50;;;31.33;42.73
9676;BME280;4876;42.656;23.292;2023-08-24T09:53:14;94502.91;;;31.31;41.96
9676;BME280;4876;42.656;23.292;2023-08-24T09:55:46;94493.56;;;31.32;42.29
9676;BME280;4876;42.656;23.292;2023-08-24T09:58:15;94486.47;;;31.34;43.31
9676;BME280;4876;42.656;23.292;2023-08-24T10:00:45;94481.44;;;31.68;43.02
9676;BME280;4876;42.656;23.292;2023-08-24T10:03:16;94478.41;;;31.66;41.62
9676;BME280;4876;42.656;23.292;2023-08-24T10:05:47;94485.22;;;31.48;41.80
9676;BME280;4876;42.656;23.292;2023-08-24T10:08:16;94483.44;;;31.54;42.18
9676;BME280;4876;42.656;23.292;2023-08-24T10:10:45;94484.69;;;31.75;42.10
9676;BME280;4876;42.656;23.292;2023-08-24T10:13:18;94469.28;;;32.03;41.37
9676;BME280;4876;42.656;23.292;2023-08-24T10:15:48;94475.59;;;32.22;41.10
9676;BME280;4876;42.656;23.292;2023-08-24T10:18:15;94480.16;;;32.25;39.81
9676;BME280;4876;42.656;23.292;2023-08-24T10:20:42;94473.78;;;32.19;39.29
9676;BME280;4876;42.656;23.292;2023-08-24T10:23:11;94478.13;;;32.16;39.68
9676;BME280;4876;42.656;23.292;2023-08-24T10:25:39;94473.16;;;32.46;39.02
9676;BME280;4876;42.656;23.292;2023-08-24T10:28:09;94464.94;;;32.77;37.92
9676;BME280;4876;42.656;23.292;2023-08-24T10:30:37;94467.88;;;32.42;38.97
9676;BME280;4876;42.656;23.292;2023-08-24T10:33:05;94460.72;;;32.85;38.99
9676;BME280;4876;42.656;23.292;2023-08-24T10:35:32;94458.81;;;33.22;38.22
9676;BME280;4876;42.656;23.292;2023-08-24T10:37:59;94450.38;;;33.30;38.24
9676;BME280;4876;42.656;23.292;2023-08-24T10:40:33;94454.13;;;33.14;38.67
9676;BME280;4876;42.656;23.292;2023-08-24T10:43:02;94441.22;;;32.87;38.22
9676;BME280;4876;42.656;23.292;2023-08-24T10:45:55;94460.50;;;33.11;39.07
9676;BME280;4876;42.656;23.292;2023-08-24T10:48:23;94452.13;;;32.96;38.47
9676;BME280;4876;42.656;23.292;2023-08-24T10:51:22;94456.41;;;33.06;38.13
9676;BME280;4876;42.656;23.292;2023-08-24T10:53:52;94446.97;;;32.98;38.19
9676;BME280;4876;42.656;23.292;2023-08-24T10:56:20;94454.56;;;33.03;38.10
9676;BME280;4876;42.656;23.292;2023-08-24T10:59:10;94443.31;;;32.33;39.46
9676;BME280;4876;42.656;23.292;2023-08-24T11:01:40;94445.47;;;32.16;38.83
9676;BME280;4876;42.656;23.292;2023-08-24T11:04:07;94449.56;;;31.90;40.62
9676;BME280;4876;42.656;23.292;2023-08-24T11:06:34;94459.75;;;31.20;44.35
9676;BME280;4876;42.656;23.292;2023-08-24T11:09:10;94446.50;;;30.37;46.60
9676;BME280;4876;42.656;23.292;2023-08-24T11:11:40;94438.34;;;30.11;47.27
9676;BME280;4876;42.656;23.292;2023-08-24T11:14:13;94434.75;;;30.01;47.87
9676;BME280;4876;42.656;23.292;2023-08-24T11:16:44;94446.22;;;29.93;46.80
9676;BME280;4876;42.656;23.292;2023-08-24T11:19:11;94441.22;;;29.91;44.91
9676;BME280;4876;42.656;23.292;2023-08-24T11:21:39;94454.06;;;30.03;45.22
9676;BME280;4876;42.656;23.292;2023-08-24T11:24:06;94440.03;;;29.92;45.57
9676;BME280;4876;42.656;23.292;2023-08-24T11:26:34;94441.91;;;29.95;45.76
9676;BME280;4876;42.656;23.292;2023-08-24T11:29:04;94430.72;;;30.06;45.53
9676;BME280;4876;42.656;23.292;2023-08-24T11:31:32;94449.06;;;30.02;46.17
9676;BME280;4876;42.656;23.292;2023-08-24T11:34:01;94455.78;;;29.97;46.21
9676;BME280;4876;42.656;23.292;2023-08-24T11:36:29;94447.31;;;29.95;45.46
9676;BME280;4876;42.656;23.292;2023-08-24T11:38:57;94457.50;;;29.91;44.27
9676;BME280;4876;42.656;23.292;2023-08-24T11:41:24;94463.91;;;29.85;44.50
9676;BME280;4876;42.656;23.292;2023-08-24T11:43:59;94462.63;;;29.89;43.47
9676;BME280;4876;42.656;23.292;2023-08-24T11:46:28;94463.06;;;30.00;43.42
9676;BME280;4876;42.656;23.292;2023-08-24T11:48:56;94466.09;;;30.02;43.42
9676;BME280;4876;42.656;23.292;2023-08-24T11:51:24;94450.34;;;29.97;44.01
9676;BME280;4876;42.656;23.292;2023-08-24T11:53:51;94455.53;;;29.79;44.99
9676;BME280;4876;42.656;23.292;2023-08-24T11:56:18;94455.84;;;29.81;44.84
9676;BME280;4876;42.656;23.292;2023-08-24T11:58:49;94454.66;;;29.69;44.53
9676;BME280;4876;42.656;23.292;2023-08-24T12:01:17;94453.69;;;29.76;44.01
9676;BME280;4876;42.656;23.292;2023-08-24T12:03:44;94443.41;;;29.96;43.70
9676;BME280;4876;42.656;23.292;2023-08-24T12:06:11;94434.81;;;29.85;44.34
9676;BME280;4876;42.656;23.292;2023-08-24T12:08:41;94429.41;;;29.85;44.30
9676;BME280;4876;42.656;23.292;2023-08-24T12:11:13;94413.59;;;30.09;44.61
9676;BME280;4876;42.656;23.292;2023-08-24T12:13:43;94409.91;;;30.03;44.39
9676;BME280;4876;42.656;23.292;2023-08-24T12:16:12;94408.69;;;30.04;44.91
9676;BME280;4876;42.656;23.292;2023-08-24T12:18:46;94401.53;;;29.97;44.93
9676;BME280;4876;42.656;23.292;2023-08-24T12:21:14;94413.03;;;29.76;45.33
9676;BME280;4876;42.656;23.292;2023-08-24T12:23:42;94416.72;;;29.82;45.29
9676;BME280;4876;42.656;23.292;2023-08-24T12:26:17;94415.19;;;29.81;45.28
9676;BME280;4876;42.656;23.292;2023-08-24T12:28:48;94410.72;;;29.74;45.45
9676;BME280;4876;42.656;23.292;2023-08-24T12:31:16;94419.84;;;29.81;44.54
9676;BME280;4876;42.656;23.292;2023-08-24T12:33:43;94420.72;;;29.77;44.33
9676;BME280;4876;42.656;23.292;2023-08-24T12:36:10;94422.91;;;29.95;44.10
9676;BME280;4876;42.656;23.292;2023-08-24T12:38:37;94430.28;;;29.95;44.14
9676;BME280;4876;42.656;23.292;2023-08-24T12:41:08;94423.22;;;29.85;44.33
9676;BME280;4876;42.656;23.292;2023-08-24T12:43:35;94418.25;;;30.09;44.08
9676;BME280;4876;42.656;23.292;2023-08-24T12:46:02;94415.97;;;30.07;44.18
9676;BME280;4876;42.656;23.292;2023-08-24T12:48:29;94414.44;;;29.93;44.34
9676;BME280;4876;42.656;23.292;2023-08-24T12:50:56;94401.75;;;29.90;44.42
9676;BME280;4876;42.656;23.292;2023-08-24T12:53:22;94413.25;;;29.94;44.48
9676;BME280;4876;42.656;23.292;2023-08-24T12:55:49;94411.72;;;29.93;44.37
9676;BME280;4876;42.656;23.292;2023-08-24T12:58:17;94425.13;;;30.13;44.97
9676;BME280;4876;42.656;23.292;2023-08-24T13:00:45;94437.50;;;30.14;44.04
9676;BME280;4876;42.656;23.292;2023-08-24T13:03:12;94444.38;;;29.90;44.17
9676;BME280;4876;42.656;23.292;2023-08-24T13:05:39;94439.81;;;29.87;44.48
9676;BME280;4876;42.656;23.292;2023-08-24T13:08:06;94438.19;;;29.89;44.85
9676;BME280;4876;42.656;23.292;2023-08-24T13:10:32;94442.97;;;29.85;44.74
9676;BME280;4876;42.656;23.292;2023-08-24T13:12:59;94436.88;;;29.81;44.80
9676;BME280;4876;42.656;23.292;2023-08-24T13:15:27;94444.59;;;29.83;44.86
9676;BME280;4876;42.656;23.292;2023-08-24T13:17:54;94439.50;;;29.85;44.72